Time;durP1;ratioP1;P1;durP2;ratioP2;P2;SDS_P1;SDS_P2;PMS_P1;PMS_P2;Temp;Humidity;BMP_temperature;BMP_pressure;BME280_temperature;BME280_humidity;BME280_pressure;Samples;Min_cycle;Max_cycle;Signal;HPM_P1;HPM_P2
2023/08/27 00:02:15;;;;;;;1.35;1.05;;;23.00;65.10;;;;;;6194535;28;20053;-71
2023/08/27 00:05:15;;;;;;;1.25;1.02;;;23.00;65.10;;;;;;6195107;28;20022;-71
2023/08/27 00:08:16;;;;;;;1.55;1.40;;;23.00;65.10;;;;;;6194603;28;20030;-71
2023/08/27 00:11:17;;;;;;;1.60;1.13;;;23.00;65.00;;;;;;6194056;28;20054;-71
2023/08/27 00:14:17;;;;;;;2.00;1.40;;;23.00;65.00;;;;;;6194646;28;20559;-70
2023/08/27 00:17:18;;;;;;;1.25;1.15;;;23.00;65.00;;;;;;6194836;28;20034;-71
2023/08/27 00:20:18;;;;;;;1.20;1.10;;;23.00;65.10;;;;;;6194186;28;20482;-70
2023/08/27 00:23:19;;;;;;;1.40;1.30;;;23.00;65.00;;;;;;6194476;28;20033;-71
2023/08/27 00:26:20;;;;;;;2.03;1.30;;;23.00;65.00;;;;;;6194398;28;20129;-71
2023/08/27 00:29:20;;;;;;;1.05;0.98;;;23.00;65.00;;;;;;6193933;28;20030;-71
2023/08/27 00:32:21;;;;;;;1.10;1.00;;;23.00;65.00;;;;;;6193398;28;20066;-71
2023/08/27 00:35:21;;;;;;;1.70;1.30;;;23.00;65.00;;;;;;6194615;28;20057;-70
2023/08/27 00:38:22;;;;;;;1.50;1.20;;;23.00;65.00;;;;;;6194824;28;20031;-70
2023/08/27 00:41:23;;;;;;;1.27;1.17;;;23.00;65.00;;;;;;6193838;28;20084;-70
2023/08/27 00:44:24;;;;;;;1.30;1.10;;;23.00;65.00;;;;;;6194780;28;20058;-70
2023/08/27 00:47:25;;;;;;;1.35;1.10;;;23.00;65.00;;;;;;6193262;28;20062;-71
2023/08/27 00:50:26;;;;;;;0.82;0.82;;;23.00;65.00;;;;;;6193409;28;20392;-71
2023/08/27 00:53:26;;;;;;;1.30;1.20;;;23.00;65.10;;;;;;6193643;28;20417;-70
2023/08/27 00:56:27;;;;;;;3.75;1.10;;;23.00;65.00;;;;;;6193985;28;20093;-71
2023/08/27 00:59:28;;;;;;;1.58;1.27;;;23.00;65.00;;;;;;6193726;28;20034;-71
2023/08/27 01:02:28;;;;;;;1.30;0.98;;;23.00;65.10;;;;;;6192946;28;20034;-71
2023/08/27 01:05:29;;;;;;;1.60;1.38;;;23.00;65.00;;;;;;6193202;28;20054;-71
2023/08/27 01:08:43;;;;;;;1.00;0.90;;;23.00;65.10;;;;;;6193399;28;20374;-71
2023/08/27 01:11:50;;;;;;;1.00;0.90;;;23.00;65.10;;;;;;6193421;28;20145;-70
2023/08/27 01:14:52;;;;;;;1.40;1.20;;;23.00;65.10;;;;;;6193142;28;20617;-71
2023/08/27 01:17:55;;;;;;;1.58;1.35;;;23.00;65.00;;;;;;6193560;28;20035;-71
2023/08/27 01:20:57;;;;;;;1.42;1.33;;;23.00;65.10;;;;;;6193397;28;20054;-70
2023/08/27 01:23:57;;;;;;;1.25;1.15;;;23.00;65.10;;;;;;6193144;28;20023;-71
2023/08/27 01:27:27;;;;;;;1.92;1.33;;;23.00;65.10;;;;;;6193192;28;20069;-70
2023/08/27 01:30:36;;;;;;;1.45;1.20;;;23.00;65.10;;;;;;6192926;28;20026;-70
2023/08/27 01:33:38;;;;;;;1.58;1.27;;;23.00;65.10;;;;;;6192829;28;20018;-71
2023/08/27 01:36:39;;;;;;;1.60;1.10;;;23.00;65.10;;;;;;6192905;28;20365;-71
2023/08/27 01:39:43;;;;;;;0.88;0.77;;;23.00;65.00;;;;;;6193087;28;20021;-71
2023/08/27 01:42:44;;;;;;;1.23;1.10;;;23.00;65.10;;;;;;6192941;28;20448;-70
2023/08/27 01:45:45;;;;;;;3.42;1.17;;;23.00;65.10;;;;;;6197227;28;20030;-71
2023/08/27 01:48:46;;;;;;;1.50;1.25;;;23.00;65.10;;;;;;6197926;28;20027;-71
2023/08/27 01:51:46;;;;;;;1.77;1.17;;;23.00;65.10;;;;;;6198377;28;20026;-70
2023/08/27 01:54:47;;;;;;;1.58;1.15;;;23.00;65.10;;;;;;6197832;28;20500;-71
2023/08/27 01:57:48;;;;;;;1.48;1.05;;;23.00;65.00;;;;;;6197914;28;20551;-70
2023/08/27 02:00:49;;;;;;;1.08;0.98;;;23.00;65.10;;;;;;6197062;28;20026;-71
2023/08/27 02:03:51;;;;;;;1.50;1.30;;;23.00;65.10;;;;;;6198218;28;20118;-71
2023/08/27 02:06:52;;;;;;;1.83;1.27;;;23.00;65.10;;;;;;6197382;28;20396;-71
2023/08/27 02:09:54;;;;;;;2.22;1.33;;;23.00;65.10;;;;;;6197567;28;20097;-71
2023/08/27 02:12:56;;;;;;;1.60;1.30;;;23.00;65.10;;;;;;6189877;28;20054;-71
2023/08/27 02:15:57;;;;;;;1.63;1.10;;;23.00;65.10;;;;;;6195802;28;20034;-72
2023/08/27 02:18:58;;;;;;;1.20;1.10;;;23.00;65.10;;;;;;6195630;28;20599;-71
2023/08/27 02:21:59;;;;;;;1.30;1.20;;;23.00;65.10;;;;;;6195595;28;20026;-71
2023/08/27 02:25:00;;;;;;;1.98;1.30;;;23.00;65.10;;;;;;6195954;28;20088;-71
2023/08/27 02:28:00;;;;;;;1.30;1.20;;;23.00;65.10;;;;;;6210673;28;20493;-71
2023/08/27 02:31:02;;;;;;;2.08;1.60;;;23.00;65.10;;;;;;6195480;28;20026;-71
2023/08/27 02:34:03;;;;;;;1.58;1.48;;;23.00;65.10;;;;;;6195372;28;20041;-71
2023/08/27 02:37:03;;;;;;;1.70;1.27;;;23.00;65.10;;;;;;6194945;28;20022;-71
2023/08/27 02:40:04;;;;;;;1.55;1.20;;;23.00;65.10;;;;;;6195469;28;20035;-71
2023/08/27 02:43:05;;;;;;;1.58;1.17;;;23.00;65.10;;;;;;6195345;28;20037;-70
2023/08/27 02:46:06;;;;;;;1.45;1.35;;;23.00;65.10;;;;;;6195523;28;20085;-71
2023/08/27 02:49:07;;;;;;;1.45;1.23;;;23.00;65.10;;;;;;6194710;28;20434;-71
2023/08/27 02:52:07;;;;;;;1.90;1.40;;;23.00;65.10;;;;;;6195387;28;20018;-71
2023/08/27 02:55:09;;;;;;;1.20;1.10;;;23.00;65.10;;;;;;6195140;28;20497;-71
2023/08/27 02:58:09;;;;;;;1.27;1.08;;;23.00;65.10;;;;;;6195089;28;20021;-71
2023/08/27 03:01:17;;;;;;;1.63;1.40;;;23.00;65.10;;;;;;6195639;28;20669;-72
2023/08/27 03:04:18;;;;;;;1.42;1.20;;;23.00;65.10;;;;;;6195673;28;20339;-70
2023/08/27 03:07:19;;;;;;;1.25;1.15;;;23.00;65.10;;;;;;6195167;28;20038;-70
2023/08/27 03:10:20;;;;;;;1.10;0.97;;;23.00;65.10;;;;;;6164649;28;1214246;-70
2023/08/27 03:13:20;;;;;;;1.75;1.20;;;23.00;65.10;;;;;;6200646;28;20089;-69
2023/08/27 03:16:21;;;;;;;1.45;1.20;;;23.00;65.10;;;;;;6196061;28;20026;-70
2023/08/27 03:19:22;;;;;;;1.63;1.17;;;23.00;65.10;;;;;;6195827;28;20080;-71
2023/08/27 03:22:22;;;;;;;1.63;1.50;;;23.00;65.20;;;;;;6195742;28;20814;-71
2023/08/27 03:25:23;;;;;;;1.90;1.45;;;23.00;65.10;;;;;;6196603;28;20034;-70
2023/08/27 03:28:23;;;;;;;1.38;1.13;;;23.00;65.10;;;;;;6195612;28;20113;-69
2023/08/27 03:31:24;;;;;;;1.60;1.33;;;23.00;65.20;;;;;;6196964;28;20551;-70
2023/08/27 03:34:24;;;;;;;1.45;1.20;;;23.00;65.20;;;;;;6196212;28;20029;-70
2023/08/27 03:37:25;;;;;;;1.58;1.30;;;23.00;65.10;;;;;;6195561;28;20022;-70
2023/08/27 03:40:26;;;;;;;1.83;1.45;;;23.00;65.10;;;;;;6195589;28;20030;-69
2023/08/27 03:43:26;;;;;;;1.65;1.33;;;23.00;65.10;;;;;;6195368;28;20022;-71
2023/08/27 03:46:27;;;;;;;1.58;1.20;;;23.00;65.10;;;;;;6195592;28;20041;-71
2023/08/27 03:49:27;;;;;;;1.83;1.27;;;23.00;65.10;;;;;;6195129;28;20054;-71
2023/08/27 03:52:28;;;;;;;1.35;1.15;;;23.00;65.10;;;;;;6195067;28;20034;-71
2023/08/27 03:55:29;;;;;;;1.70;1.30;;;23.00;65.10;;;;;;6195331;28;20022;-71
2023/08/27 03:58:29;;;;;;;1.50;1.15;;;23.00;65.20;;;;;;6195097;28;20034;-71
2023/08/27 04:01:30;;;;;;;2.00;1.52;;;23.00;65.20;;;;;;6195333;28;20030;-70
2023/08/27 04:04:32;;;;;;;1.45;1.30;;;23.00;65.20;;;;;;6194883;28;20026;-70
2023/08/27 04:07:33;;;;;;;1.65;1.30;;;23.00;65.10;;;;;;6194277;28;20049;-70
2023/08/27 04:10:34;;;;;;;1.10;1.00;;;23.00;65.10;;;;;;6195695;28;20525;-70
2023/08/27 04:13:34;;;;;;;1.45;1.27;;;23.00;65.20;;;;;;6195451;28;20445;-70
2023/08/27 04:16:35;;;;;;;1.70;1.30;;;23.00;65.10;;;;;;6194888;28;20026;-71
2023/08/27 04:19:35;;;;;;;1.10;1.00;;;23.00;65.10;;;;;;6194202;28;20131;-70
2023/08/27 04:22:36;;;;;;;1.55;1.23;;;23.00;65.10;;;;;;6194594;28;20018;-71
2023/08/27 04:25:36;;;;;;;1.65;1.23;;;23.00;65.10;;;;;;6193949;28;20018;-71
2023/08/27 04:28:37;;;;;;;1.38;1.20;;;23.00;65.20;;;;;;6194498;28;20501;-70
2023/08/27 04:31:37;;;;;;;1.60;1.48;;;23.00;65.10;;;;;;6194984;28;20501;-70
2023/08/27 04:34:38;;;;;;;1.40;1.20;;;23.00;65.20;;;;;;6193843;28;20133;-70
2023/08/27 04:37:39;;;;;;;1.73;1.40;;;23.00;66.00;;;;;;6192927;28;20029;-70
2023/08/27 04:40:39;;;;;;;1.83;1.25;;;23.00;65.20;;;;;;6193705;28;20019;-70
2023/08/27 04:43:40;;;;;;;1.40;1.30;;;23.00;65.20;;;;;;6194767;28;20489;-70
2023/08/27 04:46:40;;;;;;;1.50;1.23;;;23.00;65.20;;;;;;6194257;28;20093;-71
2023/08/27 04:49:42;;;;;;;1.10;1.00;;;23.00;65.10;;;;;;6193599;28;20062;-71
2023/08/27 04:52:42;;;;;;;1.77;1.30;;;23.00;65.20;;;;;;6193975;28;20108;-70
2023/08/27 04:55:43;;;;;;;1.52;1.10;;;23.00;65.20;;;;;;6193395;28;20504;-70
2023/08/27 04:58:44;;;;;;;1.33;0.98;;;23.00;65.20;;;;;;6193683;28;20041;-70
2023/08/27 05:01:44;;;;;;;1.38;1.13;;;23.00;65.20;;;;;;6186382;28;20113;-71
2023/08/27 05:04:46;;;;;;;2.10;1.60;;;23.00;65.20;;;;;;6178266;28;20041;-71
2023/08/27 05:07:46;;;;;;;1.73;1.30;;;23.00;65.10;;;;;;6194039;28;20038;-70
2023/08/27 05:10:47;;;;;;;1.23;1.13;;;23.00;65.20;;;;;;6192798;28;20140;-70
2023/08/27 05:13:47;;;;;;;2.22;1.30;;;23.00;65.20;;;;;;6193441;28;20120;-70
2023/08/27 05:16:48;;;;;;;1.75;1.30;;;23.00;65.20;;;;;;6193421;28;20041;-70
2023/08/27 05:19:49;;;;;;;1.77;1.23;;;23.00;65.20;;;;;;6193266;28;20034;-70
2023/08/27 05:22:49;;;;;;;1.85;1.40;;;23.00;65.20;;;;;;6193258;28;20022;-70
2023/08/27 05:25:50;;;;;;;1.70;1.40;;;23.00;65.20;;;;;;6193565;28;20034;-71
2023/08/27 05:28:50;;;;;;;1.73;1.20;;;23.00;65.10;;;;;;6193847;28;20377;-71
2023/08/27 05:31:51;;;;;;;1.38;1.17;;;23.00;65.20;;;;;;6193063;28;20065;-71
2023/08/27 05:34:53;;;;;;;1.33;1.20;;;23.00;65.20;;;;;;6193664;28;20469;-71
2023/08/27 05:37:55;;;;;;;1.67;1.20;;;23.00;65.20;;;;;;6194653;28;20038;-70
2023/08/27 05:40:56;;;;;;;2.30;1.38;;;23.00;65.20;;;;;;6193600;28;20339;-71
2023/08/27 05:43:57;;;;;;;1.83;1.45;;;23.00;65.20;;;;;;6193522;28;20404;-71
2023/08/27 05:46:58;;;;;;;1.35;1.20;;;23.00;65.20;;;;;;6193148;28;20046;-70
2023/08/27 05:49:58;;;;;;;1.40;1.20;;;23.00;65.20;;;;;;6193377;28;20292;-71
2023/08/27 05:52:59;;;;;;;1.35;1.20;;;23.00;65.20;;;;;;6193854;28;20026;-71
2023/08/27 05:55:59;;;;;;;1.67;1.20;;;22.90;65.10;;;;;;6192961;28;20101;-72
2023/08/27 05:59:00;;;;;;;1.38;1.25;;;23.00;65.20;;;;;;6193585;28;20080;-71
2023/08/27 06:02:01;;;;;;;2.05;1.50;;;23.00;66.00;;;;;;6193124;28;20054;-71
2023/08/27 06:05:01;;;;;;;1.90;1.63;;;23.00;65.20;;;;;;6193073;28;20105;-71
2023/08/27 06:08:03;;;;;;;1.75;1.58;;;23.00;65.20;;;;;;6192730;28;20559;-71
2023/08/27 06:11:04;;;;;;;1.67;1.38;;;23.00;65.10;;;;;;6192881;28;20047;-71
2023/08/27 06:14:05;;;;;;;1.35;1.20;;;23.00;65.10;;;;;;6192830;28;20030;-70
2023/08/27 06:17:06;;;;;;;1.70;1.45;;;23.00;65.20;;;;;;6192865;28;20030;-71
2023/08/27 06:20:07;;;;;;;1.38;1.27;;;23.00;65.20;;;;;;6192441;28;20019;-70
2023/08/27 06:23:08;;;;;;;1.80;1.30;;;23.00;65.10;;;;;;6192681;28;20125;-70
2023/08/27 06:26:08;;;;;;;1.73;1.42;;;23.00;65.20;;;;;;6193099;28;20023;-71
2023/08/27 06:29:09;;;;;;;1.48;1.20;;;23.00;65.20;;;;;;6193222;28;20038;-70
2023/08/27 06:32:10;;;;;;;1.77;1.40;;;23.00;65.20;;;;;;6196778;28;20057;-70
2023/08/27 06:35:10;;;;;;;2.95;1.50;;;23.00;65.20;;;;;;6196112;28;20030;-70
2023/08/27 06:38:11;;;;;;;1.60;1.40;;;23.00;65.10;;;;;;6198428;28;20034;-71
2023/08/27 06:41:11;;;;;;;1.58;1.25;;;23.00;65.20;;;;;;6197230;28;20030;-71
2023/08/27 06:44:12;;;;;;;1.50;1.20;;;23.00;65.20;;;;;;6197232;28;20429;-69
2023/08/27 06:47:12;;;;;;;1.50;1.33;;;23.00;65.20;;;;;;6196695;28;20555;-70
2023/08/27 06:50:13;;;;;;;1.90;1.48;;;22.90;65.10;;;;;;6196923;28;20046;-69
2023/08/27 06:53:14;;;;;;;2.90;1.48;;;23.00;65.20;;;;;;6197414;28;20064;-70
2023/08/27 06:56:14;;;;;;;1.50;1.40;;;23.00;65.20;;;;;;6196699;28;20092;-69
2023/08/27 06:59:15;;;;;;;1.77;1.40;;;23.00;65.20;;;;;;6196742;28;20330;-70
2023/08/27 07:02:16;;;;;;;1.55;1.30;;;23.00;65.20;;;;;;6197103;28;20030;-70
2023/08/27 07:05:17;;;;;;;1.60;1.50;;;23.00;65.20;;;;;;6196165;28;20501;-70
2023/08/27 07:08:19;;;;;;;1.35;1.25;;;23.00;65.20;;;;;;6196630;28;20481;-70
2023/08/27 07:11:19;;;;;;;1.40;1.20;;;23.00;65.20;;;;;;6195705;28;20046;-70
2023/08/27 07:14:20;;;;;;;1.27;1.10;;;23.00;65.20;;;;;;6196001;28;20270;-70
2023/08/27 07:17:21;;;;;;;1.63;1.48;;;23.00;65.20;;;;;;6196086;28;20073;-69
2023/08/27 07:20:23;;;;;;;1.50;1.13;;;23.00;65.20;;;;;;6195969;28;20041;-69
2023/08/27 07:23:23;;;;;;;1.20;1.10;;;23.00;65.20;;;;;;6195804;28;20044;-70
2023/08/27 07:26:25;;;;;;;1.10;0.95;;;23.00;65.20;;;;;;6195939;28;20042;-70
2023/08/27 07:29:25;;;;;;;1.42;1.30;;;23.00;65.20;;;;;;6195541;28;20109;-69
2023/08/27 07:32:26;;;;;;;1.58;1.30;;;23.00;65.20;;;;;;6195926;28;20030;-69
2023/08/27 07:35:27;;;;;;;1.48;1.20;;;23.00;65.20;;;;;;6195680;28;20026;-70
2023/08/27 07:38:28;;;;;;;1.75;1.45;;;23.00;65.20;;;;;;6196005;28;20030;-70
2023/08/27 07:41:28;;;;;;;1.58;1.20;;;23.00;65.20;;;;;;6195012;28;20053;-70
2023/08/27 07:44:29;;;;;;;1.80;1.48;;;23.00;65.20;;;;;;6195580;28;20030;-69
2023/08/27 07:47:29;;;;;;;2.35;1.30;;;23.00;65.20;;;;;;6194179;28;20044;-70
2023/08/27 07:50:30;;;;;;;1.30;1.20;;;23.00;65.20;;;;;;6195344;28;20045;-70
2023/08/27 07:53:31;;;;;;;1.65;1.40;;;23.00;65.20;;;;;;6195705;28;20161;-70
2023/08/27 07:56:31;;;;;;;1.10;1.00;;;23.00;65.20;;;;;;6195992;28;20018;-70
2023/08/27 07:59:32;;;;;;;1.48;1.17;;;23.00;65.20;;;;;;6195649;28;20073;-70
2023/08/27 08:02:32;;;;;;;1.27;1.10;;;23.00;65.20;;;;;;6194989;28;20019;-70
2023/08/27 08:05:33;;;;;;;1.60;1.08;;;23.00;65.20;;;;;;6194811;28;20140;-70
2023/08/27 08:08:34;;;;;;;1.30;1.20;;;22.90;65.10;;;;;;6195839;28;20042;-69
2023/08/27 08:11:35;;;;;;;1.17;1.08;;;23.00;65.20;;;;;;6194445;28;20472;-69
2023/08/27 08:14:35;;;;;;;1.45;1.05;;;22.90;65.10;;;;;;6195010;28;20093;-70
2023/08/27 08:17:36;;;;;;;1.38;1.20;;;22.90;65.10;;;;;;6194663;28;20172;-69
2023/08/27 08:20:39;;;;;;;1.60;1.27;;;22.90;65.10;;;;;;6177880;28;20030;-69
2023/08/27 08:23:40;;;;;;;1.63;1.38;;;23.00;65.20;;;;;;6190785;28;20030;-69
2023/08/27 08:26:40;;;;;;;1.50;1.10;;;22.90;65.10;;;;;;6190237;28;20143;-70
2023/08/27 08:29:41;;;;;;;1.33;1.17;;;22.90;65.10;;;;;;6191141;28;20022;-70
2023/08/27 08:32:42;;;;;;;1.10;1.00;;;22.90;65.10;;;;;;6192368;28;20052;-71
2023/08/27 08:35:43;;;;;;;1.33;1.05;;;22.90;65.10;;;;;;6191303;28;20026;-70
2023/08/27 08:38:43;;;;;;;1.65;1.20;;;22.90;65.10;;;;;;6199928;28;20031;-70
2023/08/27 08:41:50;;;;;;;1.10;1.00;;;22.90;65.10;;;;;;6199745;28;20034;-70
2023/08/27 08:44:56;;;;;;;1.25;1.15;;;23.00;65.20;;;;;;6192351;28;20064;-69
2023/08/27 08:47:59;;;;;;;1.27;1.10;;;22.90;65.10;;;;;;6190837;28;20417;-69
2023/08/27 08:51:03;;;;;;;1.25;0.98;;;22.90;65.10;;;;;;6190670;28;20106;-70
2023/08/27 08:54:04;;;;;;;1.90;1.30;;;22.90;65.10;;;;;;6190981;28;20022;-70
2023/08/27 08:57:08;;;;;;;1.02;0.90;;;22.90;65.10;;;;;;6190962;28;20026;-70
2023/08/27 09:00:11;;;;;;;1.45;1.33;;;22.90;65.10;;;;;;6191349;28;20555;-69
2023/08/27 09:03:14;;;;;;;1.30;1.13;;;22.90;65.00;;;;;;6190793;28;20427;-70
2023/08/27 09:06:22;;;;;;;1.20;1.10;;;22.90;65.10;;;;;;6191227;28;20385;-69
2023/08/27 09:09:23;;;;;;;1.08;0.98;;;22.90;65.10;;;;;;6190466;28;20508;-70
2023/08/27 09:12:26;;;;;;;1.30;1.20;;;22.90;65.10;;;;;;6191348;28;20113;-70
2023/08/27 09:15:26;;;;;;;1.10;1.00;;;22.90;65.10;;;;;;6190502;28;20041;-70
2023/08/27 09:18:27;;;;;;;1.27;1.05;;;22.90;65.10;;;;;;6198884;28;20504;-70
2023/08/27 09:21:29;;;;;;;1.20;0.88;;;22.90;65.10;;;;;;6203008;28;20026;-69
2023/08/27 09:24:30;;;;;;;1.25;1.10;;;22.90;65.10;;;;;;6190299;28;20030;-70
2023/08/27 09:27:31;;;;;;;0.80;0.80;;;22.90;65.10;;;;;;6198445;28;20038;-70
2023/08/27 09:30:32;;;;;;;1.67;1.38;;;22.90;65.10;;;;;;6198641;28;20034;-69
2023/08/27 09:33:42;;;;;;;1.10;1.00;;;22.90;65.10;;;;;;6191476;28;20170;-69
2023/08/27 09:36:43;;;;;;;1.42;1.13;;;22.90;65.10;;;;;;6193424;28;20722;-70
2023/08/27 09:39:45;;;;;;;1.10;1.00;;;22.90;65.10;;;;;;6196580;28;20042;-70
2023/08/27 09:42:46;;;;;;;1.48;1.00;;;22.90;65.10;;;;;;6190801;28;20504;-69
2023/08/27 09:45:46;;;;;;;1.10;1.00;;;22.90;65.10;;;;;;6190821;28;20033;-69
2023/08/27 09:49:04;;;;;;;1.35;1.23;;;22.90;65.10;;;;;;6199325;28;20026;-69
2023/08/27 09:52:05;;;;;;;1.00;0.90;;;22.90;65.10;;;;;;6196008;28;20096;-69
2023/08/27 09:55:13;;;;;;;1.63;1.20;;;22.90;65.10;;;;;;6192727;28;20481;-71
2023/08/27 09:58:14;;;;;;;1.38;1.00;;;22.90;65.10;;;;;;6189814;28;20031;-70
2023/08/27 10:01:14;;;;;;;1.30;1.00;;;22.90;65.10;;;;;;6189098;28;20101;-70
2023/08/27 10:04:17;;;;;;;1.30;1.00;;;22.90;65.10;;;;;;6198799;28;20389;-70
2023/08/27 10:07:17;;;;;;;1.20;1.00;;;22.90;65.10;;;;;;6195872;28;20038;-69
2023/08/27 10:10:18;;;;;;;1.48;0.90;;;22.90;65.10;;;;;;6195028;28;20473;-70
2023/08/27 10:13:20;;;;;;;1.00;0.90;;;22.90;65.10;;;;;;6203759;28;20343;-69
2023/08/27 10:16:21;;;;;;;1.08;0.98;;;22.90;65.10;;;;;;6196624;28;20030;-69
2023/08/27 10:19:22;;;;;;;1.17;1.08;;;22.90;65.10;;;;;;6194717;28;20018;-69
2023/08/27 10:22:23;;;;;;;1.00;0.90;;;22.90;66.00;;;;;;6196841;28;20038;-69
2023/08/27 10:25:25;;;;;;;1.40;1.08;;;22.90;65.10;;;;;;6194158;28;20682;-71
2023/08/27 10:28:27;;;;;;;1.20;1.10;;;22.90;65.10;;;;;;6194748;28;20061;-70
2023/08/27 10:31:27;;;;;;;1.35;1.00;;;22.90;65.10;;;;;;6194287;28;20022;-70
2023/08/27 10:34:29;;;;;;;1.08;0.98;;;22.90;65.10;;;;;;6194434;28;20488;-70
2023/08/27 10:37:30;;;;;;;1.10;1.00;;;22.90;65.10;;;;;;6195136;28;20121;-70
2023/08/27 10:40:33;;;;;;;1.40;1.00;;;22.90;65.10;;;;;;6194539;28;20026;-70
2023/08/27 10:43:35;;;;;;;1.33;1.00;;;22.90;65.10;;;;;;6194070;28;20034;-70
2023/08/27 10:46:36;;;;;;;1.00;0.90;;;22.90;65.10;;;;;;6193794;28;20038;-70
2023/08/27 10:49:37;;;;;;;0.77;0.70;;;22.90;65.10;;;;;;6194417;28;20033;-72
2023/08/27 10:52:51;;;;;;;1.08;0.88;;;22.90;65.10;;;;;;6193475;28;20030;-70
2023/08/27 10:55:54;;;;;;;1.13;1.00;;;22.90;65.10;;;;;;6195119;28;20108;-69
2023/08/27 10:59:02;;;;;;;1.40;0.90;;;22.90;65.20;;;;;;6193897;28;20042;-70
2023/08/27 11:02:09;;;;;;;1.10;1.00;;;22.90;65.10;;;;;;6192962;28;20026;-70
2023/08/27 11:05:11;;;;;;;1.13;1.00;;;22.90;65.20;;;;;;6193968;28;20022;-69
2023/08/27 11:08:16;;;;;;;1.00;0.90;;;22.90;65.10;;;;;;6202108;28;20153;-69
2023/08/27 11:11:16;;;;;;;0.90;0.82;;;22.90;65.10;;;;;;6194005;28;20050;-70
2023/08/27 11:14:19;;;;;;;1.10;0.90;;;22.90;65.20;;;;;;6199163;28;20126;-71
2023/08/27 11:17:28;;;;;;;1.70;1.10;;;22.90;65.10;;;;;;6194011;28;20452;-71
2023/08/27 11:20:29;;;;;;;2.58;1.08;;;23.00;65.70;;;;;;6194359;28;20019;-71
2023/08/27 11:23:30;;;;;;;1.10;1.00;;;23.00;65.30;;;;;;6192736;28;20484;-71
2023/08/27 11:26:32;;;;;;;1.08;0.80;;;23.00;65.30;;;;;;6194004;28;20304;-69
2023/08/27 11:29:37;;;;;;;1.10;1.00;;;23.00;65.30;;;;;;6193566;28;20030;-70
2023/08/27 11:32:37;;;;;;;0.90;0.80;;;22.90;65.20;;;;;;6194246;28;20037;-71
2023/08/27 11:35:38;;;;;;;1.05;0.80;;;22.90;65.20;;;;;;6193208;28;20027;-71
2023/08/27 11:38:39;;;;;;;0.80;0.80;;;22.90;65.20;;;;;;6195249;28;20053;-71
2023/08/27 11:41:43;;;;;;;0.70;0.70;;;22.90;65.20;;;;;;6198516;28;20026;-72
2023/08/27 11:44:51;;;;;;;1.00;0.90;;;22.90;65.20;;;;;;6193989;28;20481;-71
2023/08/27 11:47:52;;;;;;;0.80;0.80;;;23.00;65.20;;;;;;6193190;28;20041;-70
2023/08/27 11:50:52;;;;;;;0.80;0.80;;;23.00;65.20;;;;;;6197152;28;20389;-70
2023/08/27 11:53:53;;;;;;;1.00;0.88;;;23.00;65.30;;;;;;6199976;28;20030;-71
2023/08/27 11:56:56;;;;;;;1.02;0.93;;;23.00;65.30;;;;;;6192690;28;20110;-71
2023/08/27 11:59:57;;;;;;;1.02;0.90;;;22.90;65.20;;;;;;6192687;28;20022;-71
2023/08/27 12:02:58;;;;;;;1.00;0.90;;;22.90;65.20;;;;;;6192891;28;20448;-71
2023/08/27 12:05:59;;;;;;;0.63;0.63;;;22.90;65.20;;;;;;6192540;28;20023;-71
2023/08/27 12:09:00;;;;;;;1.20;0.90;;;22.90;65.20;;;;;;6191933;28;20030;-71
2023/08/27 12:12:05;;;;;;;0.70;0.70;;;22.90;65.20;;;;;;6192610;28;20038;-71
2023/08/27 12:15:06;;;;;;;;;;;22.90;65.20;;;;;;6192478;28;20026;-71
2023/08/27 12:18:08;;;;;;;1.08;0.80;;;22.90;65.20;;;;;;6192917;28;20347;-71
2023/08/27 12:21:08;;;;;;;1.10;0.90;;;22.90;65.20;;;;;;6191516;28;20034;-70
2023/08/27 12:24:09;;;;;;;0.90;0.70;;;22.90;66.00;;;;;;6191599;28;20085;-70
2023/08/27 12:27:15;;;;;;;1.05;0.95;;;22.90;65.20;;;;;;6191169;28;20030;-71
2023/08/27 12:30:15;;;;;;;1.20;0.90;;;22.90;65.20;;;;;;6199239;28;20018;-71
2023/08/27 12:33:16;;;;;;;0.50;0.50;;;22.90;65.20;;;;;;6191254;28;20058;-71
2023/08/27 12:36:17;;;;;;;0.80;0.80;;;22.90;65.20;;;;;;6199315;28;20054;-72
2023/08/27 12:39:18;;;;;;;1.08;0.90;;;22.90;65.20;;;;;;6192324;28;20025;-71
2023/08/27 12:42:21;;;;;;;0.88;0.80;;;22.90;65.20;;;;;;6191980;28;20177;-72
2023/08/27 12:45:21;;;;;;;1.50;0.90;;;22.90;65.20;;;;;;6192139;28;20410;-71
2023/08/27 12:48:22;;;;;;;1.05;0.80;;;22.90;65.20;;;;;;6185087;28;20045;-71
2023/08/27 12:51:23;;;;;;;1.33;0.90;;;22.90;65.20;;;;;;6190628;28;20061;-71
2023/08/27 12:54:23;;;;;;;1.13;0.93;;;22.90;65.20;;;;;;6190701;28;20033;-71
2023/08/27 12:57:24;;;;;;;1.63;0.90;;;22.90;65.20;;;;;;6191612;28;20029;-71
2023/08/27 13:00:25;;;;;;;1.75;1.15;;;22.90;65.20;;;;;;6191315;28;20070;-71
2023/08/27 13:03:26;;;;;;;1.17;0.90;;;22.90;65.20;;;;;;6191423;28;20052;-70
2023/08/27 13:06:28;;;;;;;1.48;1.05;;;22.90;65.20;;;;;;6191603;28;20034;-71
2023/08/27 13:09:29;;;;;;;1.08;0.90;;;22.90;65.20;;;;;;6190778;28;20069;-71
2023/08/27 13:12:29;;;;;;;1.20;0.90;;;22.90;65.20;;;;;;6198490;28;20083;-72
2023/08/27 13:15:30;;;;;;;1.13;1.00;;;22.90;65.20;;;;;;6196220;28;20093;-72
2023/08/27 13:18:31;;;;;;;1.38;1.10;;;22.90;65.20;;;;;;6191625;28;20057;-71
2023/08/27 13:21:31;;;;;;;1.95;1.13;;;22.90;65.20;;;;;;6199329;28;20310;-71
2023/08/27 13:24:32;;;;;;;1.67;1.10;;;22.90;65.20;;;;;;6195055;28;20121;-72
2023/08/27 13:27:33;;;;;;;1.25;1.00;;;22.90;65.20;;;;;;6191047;28;20129;-71
2023/08/27 13:30:33;;;;;;;2.00;0.90;;;22.90;65.20;;;;;;6190828;28;20022;-72
2023/08/27 13:33:34;;;;;;;0.88;0.63;;;22.90;65.20;;;;;;6190844;28;20038;-71
2023/08/27 13:36:35;;;;;;;1.45;1.10;;;22.90;65.20;;;;;;6190153;28;20121;-71
2023/08/27 13:39:35;;;;;;;1.48;0.90;;;22.90;65.20;;;;;;6193191;28;20019;-70
2023/08/27 13:42:36;;;;;;;1.25;0.90;;;22.90;65.20;;;;;;6195173;28;20053;-71
2023/08/27 13:45:37;;;;;;;1.98;0.90;;;22.90;65.20;;;;;;6197916;28;20018;-72
2023/08/27 13:48:37;;;;;;;1.05;0.90;;;22.90;65.20;;;;;;6201926;28;20102;-71
2023/08/27 13:51:38;;;;;;;1.25;0.98;;;22.90;65.20;;;;;;6194736;28;20131;-72
2023/08/27 13:54:38;;;;;;;1.70;1.08;;;22.90;65.20;;;;;;6194884;28;20109;-72
2023/08/27 13:57:40;;;;;;;1.00;0.80;;;22.90;65.20;;;;;;6195240;28;20106;-71
2023/08/27 14:00:41;;;;;;;0.80;0.73;;;22.90;65.20;;;;;;6192879;28;20081;-71
2023/08/27 14:03:41;;;;;;;1.20;0.82;;;22.90;65.20;;;;;;6194311;28;20022;-71
2023/08/27 14:06:43;;;;;;;0.80;0.80;;;22.90;65.20;;;;;;6186370;28;20045;-72
2023/08/27 14:09:44;;;;;;;1.13;0.80;;;22.90;65.20;;;;;;6193700;28;20133;-72
2023/08/27 14:12:46;;;;;;;1.20;1.00;;;22.90;65.20;;;;;;6194600;28;20495;-70
2023/08/27 14:15:47;;;;;;;1.80;1.10;;;22.90;65.20;;;;;;6194554;28;20042;-71
2023/08/27 14:18:47;;;;;;;1.35;0.80;;;22.90;65.20;;;;;;6195156;28;20494;-71
2023/08/27 14:21:48;;;;;;;3.35;0.82;;;22.90;65.20;;;;;;6194610;28;20108;-72
2023/08/27 14:24:48;;;;;;;1.35;0.90;;;22.90;65.20;;;;;;6194659;28;20038;-71
2023/08/27 14:27:49;;;;;;;1.08;0.93;;;22.90;65.20;;;;;;6194970;28;20038;-71
2023/08/27 14:30:50;;;;;;;2.33;1.00;;;22.90;65.20;;;;;;6201710;28;20464;-71
2023/08/27 14:33:51;;;;;;;1.33;1.00;;;22.90;65.20;;;;;;6201866;28;20085;-72
2023/08/27 14:36:52;;;;;;;1.17;0.75;;;22.90;65.20;;;;;;6197252;28;20089;-72
2023/08/27 14:39:53;;;;;;;1.50;1.00;;;22.90;65.20;;;;;;6197475;28;20616;-72
2023/08/27 14:42:53;;;;;;;1.63;1.00;;;22.90;65.20;;;;;;6198004;28;20113;-71
2023/08/27 14:45:54;;;;;;;1.27;1.00;;;22.90;65.20;;;;;;6193889;28;20026;-72
2023/08/27 14:48:55;;;;;;;1.17;0.90;;;22.90;65.20;;;;;;6193947;28;20570;-71
2023/08/27 14:51:55;;;;;;;1.00;0.70;;;22.90;65.20;;;;;;6192382;28;20034;-71
2023/08/27 14:54:56;;;;;;;0.68;0.63;;;22.90;65.20;;;;;;6193799;28;20088;-71
2023/08/27 14:57:56;;;;;;;1.02;0.82;;;22.90;65.20;;;;;;6192117;28;20030;-72
2023/08/27 15:00:57;;;;;;;0.90;0.80;;;22.90;65.20;;;;;;6200889;28;20066;-72
2023/08/27 15:03:58;;;;;;;0.98;0.80;;;22.90;65.20;;;;;;6184721;28;20690;-71
2023/08/27 15:06:58;;;;;;;1.38;0.90;;;22.90;65.20;;;;;;6193947;28;20030;-72
2023/08/27 15:09:59;;;;;;;0.80;0.70;;;22.90;65.20;;;;;;6182526;28;20065;-72
2023/08/27 15:13:00;;;;;;;1.33;0.70;;;22.90;65.20;;;;;;6193189;28;20032;-71
2023/08/27 15:16:00;;;;;;;0.70;0.63;;;22.90;65.20;;;;;;6193114;28;20034;-72
2023/08/27 15:19:01;;;;;;;1.08;0.93;;;22.90;65.20;;;;;;6192816;28;20455;-72
2023/08/27 15:22:02;;;;;;;1.00;0.70;;;22.90;66.10;;;;;;6193214;28;20521;-71
2023/08/27 15:25:03;;;;;;;0.90;0.80;;;22.90;65.20;;;;;;6192843;28;20296;-71
2023/08/27 15:28:04;;;;;;;1.08;0.90;;;22.90;65.20;;;;;;6198000;28;20082;-71
2023/08/27 15:31:05;;;;;;;0.65;0.55;;;22.90;65.20;;;;;;6192583;28;20520;-71
2023/08/27 15:34:09;;;;;;;0.70;0.65;;;22.90;65.20;;;;;;6194072;28;20034;-71
2023/08/27 15:37:10;;;;;;;0.93;0.75;;;22.90;65.20;;;;;;6193508;28;20041;-71
2023/08/27 15:40:11;;;;;;;1.33;0.70;;;22.90;65.30;;;;;;6192785;28;20014;-71
2023/08/27 15:43:32;;;;;;;0.85;0.80;;;22.90;65.20;;;;;;6192561;28;20026;-72
2023/08/27 15:46:33;;;;;;;2.30;1.13;;;22.90;65.20;;;;;;6192127;28;20046;-71